| time (UTC) | temp C | wind direction | speed KPH | gust KPH | rain 1hr cm | rain 24hr cm | rain mn cm | humidity % | barometer mb |
| 20260507033053 | 13 | 271 | 0.0 | 3.2 | 0.00 | 0.66 | 0.66 | 97 | 1007.1 |
| 20260507031514 | 13 | 256 | 1.6 | 3.2 | 0.00 | 0.66 | 0.66 | 97 | 1007.2 |
| 20260507030044 | 12 | 252 | 0.0 | 3.2 | 0.00 | 0.66 | 0.66 | 96 | 1007.1 |
| 20260507024503 | 12 | 265 | 0.0 | 1.6 | 0.00 | 0.66 | 0.66 | 96 | 1007.1 |
| 20260507023041 | 12 | 265 | 0.0 | 3.2 | 0.00 | 0.66 | 0.66 | 96 | 1006.9 |
| 20260507021559 | 12 | 254 | 0.0 | 4.8 | 0.00 | 0.66 | 0.66 | 96 | 1007.1 |
| 20260507020030 | 12 | 271 | 1.6 | 4.8 | 0.00 | 0.66 | 0.66 | 96 | 1007.5 |
| 20260507014555 | 12 | 211 | 1.6 | 4.8 | 0.00 | 0.66 | 0.66 | 96 | 1007.7 |
| 20260507013049 | 12 | 241 | 0.0 | 8.0 | 0.00 | 0.66 | 0.66 | 96 | 1007.2 |
| 20260507011513 | 13 | 172 | 1.6 | 11.3 | 0.00 | 0.66 | 0.66 | 96 | 1007.1 |
| 20260507010036 | 13 | 218 | 3.2 | 8.0 | 0.00 | 0.66 | 0.66 | 96 | 1007.5 |
| 20260507004541 | 13 | 194 | 1.6 | 6.4 | 0.00 | 0.66 | 0.66 | 96 | 1007.7 |
| 20260507003049 | 13 | 219 | 1.6 | 8.0 | 0.00 | 0.66 | 0.66 | 96 | 1007.9 |
| 20260507001604 | 13 | 234 | 1.6 | 4.8 | 0.00 | 0.66 | 0.66 | 96 | 1007.5 |
| 20260507000028 | 13 | 265 | 3.2 | 9.7 | 0.00 | 0.66 | 0.66 | 95 | 1007.5 |
| 20260506234543 | 13 | 238 | 3.2 | 11.3 | 0.00 | 0.66 | 0.66 | 95 | 1007.3 |
| 20260506233039 | 13 | 232 | 6.4 | 17.7 | 0.00 | 0.66 | 0.66 | 95 | 1007.3 |
| 20260506231558 | 13 | 155 | 6.4 | 20.9 | 0.00 | 0.66 | 0.66 | 95 | 1007.4 |
| 20260506230001 | 13 | 271 | 6.4 | 19.3 | 0.00 | 0.66 | 0.66 | 95 | 1007.3 |
| 20260506224528 | 13 | 215 | 6.4 | 19.3 | 0.03 | 0.66 | 0.66 | 95 | 1007.3 |
| 20260506223049 | 13 | 246 | 4.8 | 19.3 | 0.08 | 0.66 | 0.66 | 95 | 1007.2 |
| 20260506221537 | 13 | 225 | 6.4 | 17.7 | 0.13 | 0.66 | 0.66 | 95 | 1007.1 |
| 20260506220055 | 13 | 256 | 6.4 | 24.1 | 0.25 | 0.66 | 0.66 | 94 | 1007.3 |
| 20260506214552 | 13 | 255 | 11.3 | 19.3 | 0.38 | 0.64 | 0.64 | 93 | 1007.3 |
| 20260506213142 | 13 | 223 | 8.0 | 17.7 | 0.38 | 0.58 | 0.58 | 92 | 1007.2 |
| 20260506211632 | 13 | 234 | 6.4 | 17.7 | 0.38 | 0.53 | 0.53 | 91 | 1007.6 |
| 20260506210016 | 13 | 189 | 8.0 | 25.7 | 0.25 | 0.41 | 0.41 | 91 | 1007.8 |
| 20260506204547 | 13 | 253 | 6.4 | 19.3 | 0.13 | 0.25 | 0.25 | 90 | 1007.9 |
| 20260506203046 | 13 | 148 | 9.7 | 24.1 | 0.08 | 0.20 | 0.20 | 90 | 1007.8 |
| 20260506201604 | 14 | 252 | 8.0 | 24.1 | 0.03 | 0.15 | 0.15 | 90 | 1007.9 |
| 20260506200100 | 14 | 238 | 8.0 | 33.8 | 0.03 | 0.15 | 0.15 | 89 | 1007.8 |
| 20260506194516 | 14 | 216 | 8.0 | 22.5 | 0.05 | 0.13 | 0.13 | 90 | 1007.9 |
| 20260506193042 | 13 | 272 | 9.7 | 24.1 | 0.10 | 0.13 | 0.13 | 90 | 1008.2 |
| 20260506191546 | 13 | 286 | 6.4 | 27.4 | 0.13 | 0.13 | 0.13 | 90 | 1008.4 |
| 20260506190007 | 13 | 269 | 8.0 | 20.9 | 0.13 | 0.13 | 0.13 | 90 | 1008.4 |
| 20260506184536 | 13 | 234 | 3.2 | 20.9 | 0.08 | 0.08 | 0.08 | 88 | 1008.7 |
| 20260506183042 | 14 | 153 | 6.4 | 17.7 | 0.03 | 0.03 | 0.03 | 86 | 1008.7 |
| 20260506181548 | 15 | 243 | 4.8 | 14.5 | 0.00 | 0.00 | 0.00 | 85 | 1009.1 |
| 20260506174601 | 15 | 245 | 6.4 | 17.7 | 0.00 | 0.00 | 0.00 | 82 | 1009.4 |
| 20260506173108 | 15 | 243 | 12.9 | 27.4 | 0.00 | 0.00 | 0.00 | 81 | 1009.8 |
| 20260506171529 | 16 | 262 | 6.4 | 29.0 | 0.00 | 0.00 | 0.00 | 81 | 1009.7 |
| 20260506170055 | 15 | 192 | 11.3 | 25.7 | 0.00 | 0.00 | 0.00 | 81 | 1010.2 |
| 20260506164540 | 15 | 282 | 11.3 | 22.5 | 0.00 | 0.00 | 0.00 | 81 | 1010.2 |
| 20260506163104 | 16 | 344 | 6.4 | 22.5 | 0.00 | 0.00 | 0.00 | 80 | 1010.3 |
| 20260506161507 | 16 | 261 | 11.3 | 35.4 | 0.00 | 0.00 | 0.00 | 79 | 1010.6 |
| 20260506160017 | 16 | 261 | 6.4 | 30.6 | 0.00 | 0.00 | 0.00 | 79 | 1010.9 |
| 20260506154544 | 16 | 231 | 6.4 | 25.7 | 0.00 | 0.00 | 0.00 | 79 | 1010.8 |
| 20260506153103 | 16 | 187 | 12.9 | 25.7 | 0.00 | 0.00 | 0.00 | 78 | 1010.9 |
| 20260506151558 | 17 | 198 | 8.0 | 25.7 | 0.00 | 0.00 | 0.00 | 78 | 1010.8 |
| 20260506150022 | 17 | 93 | 12.9 | 25.7 | 0.00 | 0.00 | 0.00 | 75 | 1010.8 |
| 20260506144543 | 17 | 261 | 11.3 | 27.4 | 0.00 | 0.00 | 0.00 | 77 | 1010.9 |
| 20260506143047 | 17 | 243 | 9.7 | 22.5 | 0.00 | 0.00 | 0.00 | 78 | 1011.2 |
| 20260506141559 | 16 | 185 | 6.4 | 24.1 | 0.00 | 0.00 | 0.00 | 79 | 1011.1 |
| 20260506140022 | 16 | 269 | 8.0 | 22.5 | 0.00 | 0.00 | 0.00 | 81 | 1010.9 |
| 20260506134547 | 16 | 174 | 8.0 | 20.9 | 0.00 | 0.00 | 0.00 | 81 | 1010.9 |
| 20260506133103 | 16 | 172 | 8.0 | 22.5 | 0.00 | 0.00 | 0.00 | 79 | 1010.7 |
| 20260506131600 | 16 | 245 | 6.4 | 17.7 | 0.00 | 0.00 | 0.00 | 80 | 1011.1 |
| 20260506124503 | 16 | 238 | 6.4 | 30.6 | 0.00 | 0.00 | 0.00 | 81 | 1011.1 |
| 20260506123033 | 15 | 257 | 4.8 | 27.4 | 0.00 | 0.00 | 0.00 | 82 | 1011.2 |
| 20260506121547 | 15 | 244 | 6.4 | 22.5 | 0.00 | 0.00 | 0.00 | 83 | 1011.3 |
| 20260506120053 | 15 | 259 | 8.0 | 17.7 | 0.00 | 0.00 | 0.00 | 84 | 1011.2 |
| 20260506114552 | 15 | 248 | 8.0 | 22.5 | 0.00 | 0.00 | 0.00 | 84 | 1011.3 |
| 20260506113105 | 15 | 260 | 4.8 | 17.7 | 0.00 | 0.00 | 0.00 | 84 | 1011.4 |
| 20260506111512 | 14 | 259 | 4.8 | 12.9 | 0.00 | 0.00 | 0.00 | 85 | 1011.3 |
| 20260506110041 | 14 | 173 | 3.2 | 17.7 | 0.00 | 0.00 | 0.00 | 87 | 1011.5 |
| 20260506104556 | 13 | 298 | 1.6 | 17.7 | 0.00 | 0.00 | 0.00 | 87 | 1011.2 |
| 20260506103056 | 13 | 177 | 8.0 | 27.4 | 0.00 | 0.00 | 0.00 | 87 | 1011.3 |
| 20260506101503 | 13 | 243 | 4.8 | 24.1 | 0.00 | 0.00 | 0.00 | 86 | 1011.1 |
| 20260506100031 | 14 | 249 | 4.8 | 17.7 | 0.00 | 0.00 | 0.00 | 86 | 1011.1 |
| 20260506094545 | 14 | 203 | 8.0 | 25.7 | 0.00 | 0.00 | 0.00 | 87 | 1011.1 |
| 20260506093100 | 14 | 183 | 8.0 | 20.9 | 0.00 | 0.00 | 0.00 | 87 | 1011.1 |
| 20260506091523 | 14 | 199 | 6.4 | 16.1 | 0.00 | 0.00 | 0.00 | 86 | 1011.1 |
| 20260506090046 | 14 | 264 | 6.4 | 19.3 | 0.00 | 0.00 | 0.00 | 86 | 1011.3 |
| 20260506084604 | 14 | 238 | 6.4 | 22.5 | 0.00 | 0.00 | 0.00 | 85 | 1011.4 |
| 20260506083047 | 14 | 320 | 6.4 | 19.3 | 0.00 | 0.00 | 0.00 | 85 | 1011.4 |
| 20260506081608 | 14 | 327 | 3.2 | 16.1 | 0.00 | 0.00 | 0.00 | 85 | 1011.5 |
| 20260506073040 | 14 | 276 | 4.8 | 19.3 | 0.00 | 0.00 | 0.00 | 84 | 1011.5 |
| 20260506071555 | 14 | 238 | 1.6 | 22.5 | 0.00 | 0.00 | 0.00 | 84 | 1011.5 |
| 20260506061548 | 14 | 275 | 1.6 | 11.3 | 0.00 | 0.00 | 0.00 | 83 | 1011.8 |
| 20260506044546 | 15 | 265 | 3.2 | 14.5 | 0.00 | 0.00 | 0.00 | 81 | 1012.2 |
| 20260506043100 | 15 | 257 | 8.0 | 20.9 | 0.00 | 0.00 | 0.00 | 81 | 1012.2 |
| 20260506041515 | 15 | 294 | 4.8 | 16.1 | 0.00 | 0.00 | 0.00 | 79 | 1012.3 |
| 20260506040026 | 15 | 250 | 4.8 | 17.7 | 0.00 | 0.00 | 0.00 | 78 | 1012.2 |
| 20260506034543 | 15 | 258 | 9.7 | 20.9 | 0.00 | 0.00 | 0.00 | 78 | 1012.1 |